sensor_id;sensor_type;location;lat;lon;timestamp;pressure;altitude;pressure_sealevel;temperature;humidity
3812;BME280;1921;49.368;11.068;2024-02-04T00:01:22;98470.91;;;8.94;88.32
3812;BME280;1921;49.368;11.068;2024-02-04T00:03:48;98500.03;;;9.07;89.25
3812;BME280;1921;49.368;11.068;2024-02-04T00:06:13;98393.50;;;8.23;89.72
3812;BME280;1921;49.368;11.068;2024-02-04T00:08:39;98465.06;;;8.92;89.18
3812;BME280;1921;49.368;11.068;2024-02-04T00:11:05;98504.75;;;9.21;89.07
3812;BME280;1921;49.368;11.068;2024-02-04T00:13:33;98491.50;;;9.14;88.85
3812;BME280;1921;49.368;11.068;2024-02-04T00:15:58;98538.56;;;9.21;88.63
3812;BME280;1921;49.368;11.068;2024-02-04T00:18:24;98515.34;;;9.10;88.61
3812;BME280;1921;49.368;11.068;2024-02-04T00:20:51;98488.63;;;8.90;88.79
3812;BME280;1921;49.368;11.068;2024-02-04T00:23:16;98522.69;;;8.97;89.11
3812;BME280;1921;49.368;11.068;2024-02-04T00:25:42;98545.09;;;9.07;89.41
3812;BME280;1921;49.368;11.068;2024-02-04T00:28:08;98538.09;;;9.08;89.47
3812;BME280;1921;49.368;11.068;2024-02-04T00:30:40;98535.03;;;9.12;89.03
3812;BME280;1921;49.368;11.068;2024-02-04T00:33:05;98398.91;;;8.49;88.57
3812;BME280;1921;49.368;11.068;2024-02-04T00:35:31;98486.34;;;9.05;88.21
3812;BME280;1921;49.368;11.068;2024-02-04T00:37:57;98487.03;;;8.79;89.17
3812;BME280;1921;49.368;11.068;2024-02-04T00:40:23;98465.69;;;8.76;88.64
3812;BME280;1921;49.368;11.068;2024-02-04T00:42:48;98499.72;;;9.10;88.20
3812;BME280;1921;49.368;11.068;2024-02-04T00:45:14;98463.81;;;8.96;88.07
3812;BME280;1921;49.368;11.068;2024-02-04T00:47:40;98509.56;;;9.16;88.40
3812;BME280;1921;49.368;11.068;2024-02-04T00:50:06;98488.38;;;8.83;89.78
3812;BME280;1921;49.368;11.068;2024-02-04T00:52:32;98453.84;;;8.63;89.66
3812;BME280;1921;49.368;11.068;2024-02-04T00:54:58;98509.16;;;9.11;88.86
3812;BME280;1921;49.368;11.068;2024-02-04T00:57:24;98491.66;;;9.13;87.88
3812;BME280;1921;49.368;11.068;2024-02-04T00:59:50;98506.34;;;9.04;88.92
3812;BME280;1921;49.368;11.068;2024-02-04T01:02:16;98483.16;;;9.11;88.26
3812;BME280;1921;49.368;11.068;2024-02-04T01:04:42;98525.13;;;9.26;88.63
3812;BME280;1921;49.368;11.068;2024-02-04T01:07:07;98486.88;;;8.81;90.08
3812;BME280;1921;49.368;11.068;2024-02-04T01:09:33;98500.91;;;8.98;90.52
3812;BME280;1921;49.368;11.068;2024-02-04T01:11:59;98528.75;;;9.15;89.85
3812;BME280;1921;49.368;11.068;2024-02-04T01:14:25;98497.25;;;8.90;90.51
3812;BME280;1921;49.368;11.068;2024-02-04T01:16:50;98516.59;;;9.06;91.01
3812;BME280;1921;49.368;11.068;2024-02-04T01:19:16;98470.44;;;8.80;91.14
3812;BME280;1921;49.368;11.068;2024-02-04T01:21:42;98509.91;;;9.03;91.12
3812;BME280;1921;49.368;11.068;2024-02-04T01:24:09;98498.78;;;8.83;91.91
3812;BME280;1921;49.368;11.068;2024-02-04T01:26:35;98478.63;;;8.85;91.33
3812;BME280;1921;49.368;11.068;2024-02-04T01:29:01;98506.41;;;8.95;92.60
3812;BME280;1921;49.368;11.068;2024-02-04T01:31:27;98457.84;;;8.58;93.38
3812;BME280;1921;49.368;11.068;2024-02-04T01:33:53;98506.72;;;8.82;94.29
3812;BME280;1921;49.368;11.068;2024-02-04T01:36:18;98505.41;;;8.68;96.01
3812;BME280;1921;49.368;11.068;2024-02-04T01:38:45;98436.56;;;8.35;96.24
3812;BME280;1921;49.368;11.068;2024-02-04T01:41:11;98502.09;;;8.76;96.41
3812;BME280;1921;49.368;11.068;2024-02-04T01:43:36;98430.41;;;8.46;97.31
3812;BME280;1921;49.368;11.068;2024-02-04T01:46:02;98476.31;;;8.55;97.50
3812;BME280;1921;49.368;11.068;2024-02-04T01:48:28;98434.53;;;8.29;98.38
3812;BME280;1921;49.368;11.068;2024-02-04T01:50:55;98432.31;;;8.34;98.03
3812;BME280;1921;49.368;11.068;2024-02-04T01:53:23;98447.06;;;8.43;98.21
3812;BME280;1921;49.368;11.068;2024-02-04T01:55:49;98442.16;;;8.30;98.43
3812;BME280;1921;49.368;11.068;2024-02-04T01:58:15;98461.19;;;8.41;98.54
3812;BME280;1921;49.368;11.068;2024-02-04T02:00:42;98491.06;;;8.64;98.69
3812;BME280;1921;49.368;11.068;2024-02-04T02:03:11;98488.97;;;8.68;98.61
3812;BME280;1921;49.368;11.068;2024-02-04T02:05:39;98450.13;;;8.39;99.14
3812;BME280;1921;49.368;11.068;2024-02-04T02:08:06;98446.56;;;8.40;99.18
3812;BME280;1921;49.368;11.068;2024-02-04T02:10:32;98475.88;;;8.59;99.14
3812;BME280;1921;49.368;11.068;2024-02-04T02:13:09;98463.28;;;8.65;99.15
3812;BME280;1921;49.368;11.068;2024-02-04T02:15:43;98455.56;;;8.45;98.99
3812;BME280;1921;49.368;11.068;2024-02-04T02:18:21;98468.66;;;8.53;99.57
3812;BME280;1921;49.368;11.068;2024-02-04T02:24:10;98513.25;;;8.58;100.00
3812;BME280;1921;49.368;11.068;2024-02-04T02:26:36;98391.97;;;7.93;100.00
3812;BME280;1921;49.368;11.068;2024-02-04T02:29:06;98451.06;;;8.28;99.06
3812;BME280;1921;49.368;11.068;2024-02-04T02:31:39;98472.66;;;8.38;99.48
3812;BME280;1921;49.368;11.068;2024-02-04T02:34:06;98511.88;;;8.64;99.90
3812;BME280;1921;49.368;11.068;2024-02-04T02:36:45;98503.78;;;8.67;99.34
3812;BME280;1921;49.368;11.068;2024-02-04T02:39:25;98508.97;;;8.67;99.88
3812;BME280;1921;49.368;11.068;2024-02-04T02:41:57;98503.09;;;8.65;99.16
3812;BME280;1921;49.368;11.068;2024-02-04T02:44:26;98488.59;;;8.62;98.59
3812;BME280;1921;49.368;11.068;2024-02-04T02:46:54;98466.34;;;8.50;98.29
3812;BME280;1921;49.368;11.068;2024-02-04T02:49:21;98481.03;;;8.69;97.24
3812;BME280;1921;49.368;11.068;2024-02-04T02:51:47;98465.25;;;8.53;97.58
3812;BME280;1921;49.368;11.068;2024-02-04T02:54:12;98489.59;;;8.52;97.95
3812;BME280;1921;49.368;11.068;2024-02-04T02:56:38;98509.38;;;8.72;97.22
3812;BME280;1921;49.368;11.068;2024-02-04T02:59:04;98516.19;;;8.73;97.36
3812;BME280;1921;49.368;11.068;2024-02-04T03:01:30;98511.31;;;8.70;97.28
3812;BME280;1921;49.368;11.068;2024-02-04T03:03:56;98506.75;;;8.72;97.23
3812;BME280;1921;49.368;11.068;2024-02-04T03:06:22;98479.06;;;8.53;97.10
3812;BME280;1921;49.368;11.068;2024-02-04T03:08:48;98463.47;;;8.53;96.71
3812;BME280;1921;49.368;11.068;2024-02-04T03:11:13;98487.66;;;8.63;96.47
3812;BME280;1921;49.368;11.068;2024-02-04T03:13:39;98457.44;;;8.53;97.42
3812;BME280;1921;49.368;11.068;2024-02-04T03:16:11;98466.22;;;8.79;96.16
3812;BME280;1921;49.368;11.068;2024-02-04T03:18:42;98466.06;;;8.81;95.74
3812;BME280;1921;49.368;11.068;2024-02-04T03:21:15;98413.53;;;8.50;95.83
3812;BME280;1921;49.368;11.068;2024-02-04T03:23:42;98497.66;;;8.86;95.93
3812;BME280;1921;49.368;11.068;2024-02-04T03:26:09;98469.13;;;8.76;96.41
3812;BME280;1921;49.368;11.068;2024-02-04T03:28:35;98457.28;;;8.64;96.05
3812;BME280;1921;49.368;11.068;2024-02-04T03:31:02;98483.56;;;8.88;95.14
3812;BME280;1921;49.368;11.068;2024-02-04T03:33:27;98448.66;;;8.81;94.94
3812;BME280;1921;49.368;11.068;2024-02-04T03:35:53;98506.88;;;9.08;94.96
3812;BME280;1921;49.368;11.068;2024-02-04T03:38:19;98493.72;;;9.09;94.64
3812;BME280;1921;49.368;11.068;2024-02-04T03:40:46;98469.59;;;8.89;94.21
3812;BME280;1921;49.368;11.068;2024-02-04T03:43:11;98441.44;;;8.75;94.50
3812;BME280;1921;49.368;11.068;2024-02-04T03:45:37;98443.81;;;8.69;94.62
3812;BME280;1921;49.368;11.068;2024-02-04T03:48:03;98462.41;;;8.74;94.92
3812;BME280;1921;49.368;11.068;2024-02-04T03:50:30;98490.41;;;8.89;95.10
3812;BME280;1921;49.368;11.068;2024-02-04T03:52:56;98477.75;;;8.77;94.99
3812;BME280;1921;49.368;11.068;2024-02-04T03:55:22;98501.56;;;9.00;94.53
3812;BME280;1921;49.368;11.068;2024-02-04T03:57:47;98455.03;;;8.69;94.43
3812;BME280;1921;49.368;11.068;2024-02-04T04:00:13;98488.88;;;8.87;94.81
3812;BME280;1921;49.368;11.068;2024-02-04T04:02:40;98419.03;;;8.47;94.02
3812;BME280;1921;49.368;11.068;2024-02-04T04:05:10;98494.09;;;8.87;94.98
3812;BME280;1921;49.368;11.068;2024-02-04T04:07:39;98496.22;;;9.01;94.33
3812;BME280;1921;49.368;11.068;2024-02-04T04:10:06;98515.38;;;9.00;94.92
3812;BME280;1921;49.368;11.068;2024-02-04T04:12:32;98454.75;;;8.72;94.52
3812;BME280;1921;49.368;11.068;2024-02-04T04:14:57;98514.91;;;8.87;95.45
3812;BME280;1921;49.368;11.068;2024-02-04T04:17:23;98521.78;;;8.78;96.46
3812;BME280;1921;49.368;11.068;2024-02-04T04:19:49;98502.94;;;8.76;97.56
3812;BME280;1921;49.368;11.068;2024-02-04T04:22:15;98488.88;;;8.59;98.70
3812;BME280;1921;49.368;11.068;2024-02-04T04:24:40;98443.13;;;8.29;99.58
3812;BME280;1921;49.368;11.068;2024-02-04T04:27:07;98484.72;;;8.39;100.00
3812;BME280;1921;49.368;11.068;2024-02-04T04:29:34;98495.22;;;8.47;100.00
3812;BME280;1921;49.368;11.068;2024-02-04T04:32:00;98496.59;;;8.51;100.00
3812;BME280;1921;49.368;11.068;2024-02-04T04:34:25;98475.28;;;8.28;100.00
3812;BME280;1921;49.368;11.068;2024-02-04T04:36:51;98430.81;;;7.85;100.00
3812;BME280;1921;49.368;11.068;2024-02-04T04:39:17;98474.78;;;8.05;100.00
3812;BME280;1921;49.368;11.068;2024-02-04T04:41:44;98518.06;;;8.34;100.00
3812;BME280;1921;49.368;11.068;2024-02-04T04:44:10;98447.56;;;8.00;100.00
3812;BME280;1921;49.368;11.068;2024-02-04T04:46:39;98466.69;;;8.18;100.00
3812;BME280;1921;49.368;11.068;2024-02-04T04:49:05;98450.44;;;8.06;100.00
3812;BME280;1921;49.368;11.068;2024-02-04T04:51:31;98446.75;;;7.99;100.00
3812;BME280;1921;49.368;11.068;2024-02-04T04:53:57;98430.16;;;7.82;100.00
3812;BME280;1921;49.368;11.068;2024-02-04T04:56:23;98424.94;;;7.82;100.00
3812;BME280;1921;49.368;11.068;2024-02-04T04:58:49;98435.00;;;8.05;100.00
3812;BME280;1921;49.368;11.068;2024-02-04T05:01:16;98450.72;;;8.03;100.00
3812;BME280;1921;49.368;11.068;2024-02-04T05:03:42;98492.25;;;8.23;100.00
3812;BME280;1921;49.368;11.068;2024-02-04T05:06:08;98467.38;;;8.20;100.00
3812;BME280;1921;49.368;11.068;2024-02-04T05:08:33;98412.03;;;8.00;100.00
3812;BME280;1921;49.368;11.068;2024-02-04T05:10:59;98466.66;;;8.38;100.00
3812;BME280;1921;49.368;11.068;2024-02-04T05:13:25;98451.06;;;8.28;100.00
3812;BME280;1921;49.368;11.068;2024-02-04T05:15:50;98427.44;;;8.21;100.00
3812;BME280;1921;49.368;11.068;2024-02-04T05:18:16;98489.97;;;8.57;100.00
3812;BME280;1921;49.368;11.068;2024-02-04T05:20:42;98440.19;;;8.15;100.00
3812;BME280;1921;49.368;11.068;2024-02-04T05:23:09;98376.53;;;7.81;100.00
3812;BME280;1921;49.368;11.068;2024-02-04T05:25:35;98433.06;;;8.07;100.00
3812;BME280;1921;49.368;11.068;2024-02-04T05:28:00;98446.91;;;8.07;100.00
3812;BME280;1921;49.368;11.068;2024-02-04T05:30:26;98440.69;;;8.18;100.00
3812;BME280;1921;49.368;11.068;2024-02-04T05:32:52;98468.84;;;8.32;100.00
3812;BME280;1921;49.368;11.068;2024-02-04T05:35:17;98419.41;;;8.05;100.00
3812;BME280;1921;49.368;11.068;2024-02-04T05:37:43;98431.94;;;8.19;100.00
3812;BME280;1921;49.368;11.068;2024-02-04T05:40:09;98449.31;;;8.19;100.00
3812;BME280;1921;49.368;11.068;2024-02-04T05:42:35;98426.38;;;8.14;100.00
3812;BME280;1921;49.368;11.068;2024-02-04T05:45:03;98438.34;;;8.34;100.00
3812;BME280;1921;49.368;11.068;2024-02-04T05:47:31;98457.75;;;8.30;100.00
3812;BME280;1921;49.368;11.068;2024-02-04T05:49:57;98395.69;;;7.80;100.00
3812;BME280;1921;49.368;11.068;2024-02-04T05:52:22;98433.88;;;8.17;100.00
3812;BME280;1921;49.368;11.068;2024-02-04T05:54:48;98438.41;;;8.05;100.00
3812;BME280;1921;49.368;11.068;2024-02-04T05:57:14;98429.13;;;8.03;100.00
3812;BME280;1921;49.368;11.068;2024-02-04T05:59:40;98446.50;;;8.02;100.00
3812;BME280;1921;49.368;11.068;2024-02-04T06:02:06;98469.25;;;8.28;100.00
3812;BME280;1921;49.368;11.068;2024-02-04T06:04:32;98426.25;;;8.06;100.00
3812;BME280;1921;49.368;11.068;2024-02-04T06:06:58;98472.94;;;8.35;100.00
3812;BME280;1921;49.368;11.068;2024-02-04T06:09:24;98459.59;;;8.20;100.00
3812;BME280;1921;49.368;11.068;2024-02-04T06:11:49;98475.41;;;8.36;100.00
3812;BME280;1921;49.368;11.068;2024-02-04T06:14:15;98423.06;;;8.12;100.00
3812;BME280;1921;49.368;11.068;2024-02-04T06:16:41;98352.50;;;7.89;100.00
3812;BME280;1921;49.368;11.068;2024-02-04T06:19:06;98392.63;;;8.04;99.97
3812;BME280;1921;49.368;11.068;2024-02-04T06:21:34;98388.00;;;7.98;100.00
3812;BME280;1921;49.368;11.068;2024-02-04T06:24:00;98422.50;;;8.28;100.00
3812;BME280;1921;49.368;11.068;2024-02-04T06:26:25;98405.44;;;8.16;100.00
3812;BME280;1921;49.368;11.068;2024-02-04T06:28:51;98420.63;;;8.20;100.00
3812;BME280;1921;49.368;11.068;2024-02-04T06:31:17;98418.44;;;8.16;100.00
3812;BME280;1921;49.368;11.068;2024-02-04T06:33:43;98409.97;;;8.14;100.00
3812;BME280;1921;49.368;11.068;2024-02-04T06:36:10;98477.94;;;8.56;100.00
3812;BME280;1921;49.368;11.068;2024-02-04T06:38:36;98410.34;;;8.19;100.00
3812;BME280;1921;49.368;11.068;2024-02-04T06:41:02;98386.13;;;7.81;100.00
3812;BME280;1921;49.368;11.068;2024-02-04T06:43:27;98417.75;;;8.14;100.00
3812;BME280;1921;49.368;11.068;2024-02-04T06:45:53;98436.38;;;8.09;100.00
3812;BME280;1921;49.368;11.068;2024-02-04T06:48:19;98476.13;;;8.39;100.00
3812;BME280;1921;49.368;11.068;2024-02-04T06:50:45;98398.94;;;7.92;100.00
3812;BME280;1921;49.368;11.068;2024-02-04T06:53:14;98455.47;;;8.27;100.00
3812;BME280;1921;49.368;11.068;2024-02-04T06:55:39;98497.41;;;8.52;100.00
3812;BME280;1921;49.368;11.068;2024-02-04T06:58:05;98462.44;;;8.27;100.00
3812;BME280;1921;49.368;11.068;2024-02-04T07:00:31;98462.28;;;8.38;100.00
3812;BME280;1921;49.368;11.068;2024-02-04T07:02:57;98408.72;;;8.18;100.00
3812;BME280;1921;49.368;11.068;2024-02-04T07:05:22;98385.84;;;7.84;100.00
3812;BME280;1921;49.368;11.068;2024-02-04T07:07:49;98429.63;;;8.16;100.00
3812;BME280;1921;49.368;11.068;2024-02-04T07:10:16;98415.25;;;8.22;100.00
3812;BME280;1921;49.368;11.068;2024-02-04T07:12:42;98426.50;;;8.13;99.47
3812;BME280;1921;49.368;11.068;2024-02-04T07:15:08;98454.75;;;8.45;99.31
3812;BME280;1921;49.368;11.068;2024-02-04T07:17:35;98437.66;;;8.32;98.94
3812;BME280;1921;49.368;11.068;2024-02-04T07:20:02;98462.81;;;8.42;98.62
3812;BME280;1921;49.368;11.068;2024-02-04T07:22:28;98428.75;;;8.35;98.03
3812;BME280;1921;49.368;11.068;2024-02-04T07:24:54;98433.00;;;8.46;97.34
3812;BME280;1921;49.368;11.068;2024-02-04T07:27:20;98434.19;;;8.51;97.30
3812;BME280;1921;49.368;11.068;2024-02-04T07:29:45;98416.91;;;8.23;98.19
3812;BME280;1921;49.368;11.068;2024-02-04T07:32:13;98377.28;;;8.11;97.75
3812;BME280;1921;49.368;11.068;2024-02-04T07:34:40;98426.03;;;8.36;98.08
3812;BME280;1921;49.368;11.068;2024-02-04T07:37:06;98392.13;;;8.28;97.13
3812;BME280;1921;49.368;11.068;2024-02-04T07:39:31;98476.69;;;8.87;96.65
3812;BME280;1921;49.368;11.068;2024-02-04T07:41:57;98449.75;;;8.88;95.77
3812;BME280;1921;49.368;11.068;2024-02-04T07:44:29;98450.81;;;8.96;95.49
3812;BME280;1921;49.368;11.068;2024-02-04T07:46:55;98376.94;;;8.61;94.31
3812;BME280;1921;49.368;11.068;2024-02-04T07:49:21;98403.00;;;8.51;95.47
3812;BME280;1921;49.368;11.068;2024-02-04T07:51:46;98390.75;;;8.61;96.03
3812;BME280;1921;49.368;11.068;2024-02-04T07:54:12;98320.69;;;8.15;94.81
3812;BME280;1921;49.368;11.068;2024-02-04T07:56:38;98470.72;;;9.05;95.19
3812;BME280;1921;49.368;11.068;2024-02-04T07:59:03;98405.19;;;8.74;94.85
3812;BME280;1921;49.368;11.068;2024-02-04T08:01:30;98463.03;;;9.13;94.09
3812;BME280;1921;49.368;11.068;2024-02-04T08:03:56;98423.75;;;8.88;93.64
3812;BME280;1921;49.368;11.068;2024-02-04T08:06:22;98413.31;;;8.71;94.60
3812;BME280;1921;49.368;11.068;2024-02-04T08:08:48;98326.38;;;8.18;94.29
3812;BME280;1921;49.368;11.068;2024-02-04T08:11:18;98468.31;;;9.21;93.48
3812;BME280;1921;49.368;11.068;2024-02-04T08:13:44;98419.25;;;8.81;93.78
3812;BME280;1921;49.368;11.068;2024-02-04T08:16:11;98451.88;;;9.21;93.03
3812;BME280;1921;49.368;11.068;2024-02-04T08:18:37;98392.81;;;8.85;93.48
3812;BME280;1921;49.368;11.068;2024-02-04T08:21:03;98392.59;;;8.97;91.83
3812;BME280;1921;49.368;11.068;2024-02-04T08:23:29;98479.03;;;9.54;91.46
3812;BME280;1921;49.368;11.068;2024-02-04T08:25:54;98421.75;;;9.36;90.17
3812;BME280;1921;49.368;11.068;2024-02-04T08:28:22;98422.94;;;9.41;89.65
3812;BME280;1921;49.368;11.068;2024-02-04T08:30:49;98441.91;;;9.16;91.03
3812;BME280;1921;49.368;11.068;2024-02-04T08:33:15;98452.91;;;9.28;91.16
3812;BME280;1921;49.368;11.068;2024-02-04T08:35:40;98417.56;;;9.25;91.06
3812;BME280;1921;49.368;11.068;2024-02-04T08:38:07;98457.44;;;9.61;90.29
3812;BME280;1921;49.368;11.068;2024-02-04T08:40:33;98434.97;;;9.42;90.51
3812;BME280;1921;49.368;11.068;2024-02-04T08:42:59;98423.97;;;9.31;91.04
3812;BME280;1921;49.368;11.068;2024-02-04T08:45:24;98393.09;;;9.00;91.82
3812;BME280;1921;49.368;11.068;2024-02-04T08:47:50;98424.66;;;9.33;90.80
3812;BME280;1921;49.368;11.068;2024-02-04T08:50:16;98396.53;;;9.18;90.94
3812;BME280;1921;49.368;11.068;2024-02-04T08:52:42;98406.56;;;9.31;90.42
3812;BME280;1921;49.368;11.068;2024-02-04T08:55:08;98399.66;;;9.22;90.97
3812;BME280;1921;49.368;11.068;2024-02-04T08:57:34;98449.78;;;9.60;90.10
3812;BME280;1921;49.368;11.068;2024-02-04T09:00:00;98444.97;;;9.47;90.32
3812;BME280;1921;49.368;11.068;2024-02-04T09:02:26;98477.19;;;9.64;90.22
3812;BME280;1921;49.368;11.068;2024-02-04T09:04:51;98431.13;;;9.29;90.41
3812;BME280;1921;49.368;11.068;2024-02-04T09:07:17;98420.06;;;9.27;90.27
3812;BME280;1921;49.368;11.068;2024-02-04T09:09:43;98454.41;;;9.66;89.13
3812;BME280;1921;49.368;11.068;2024-02-04T09:12:09;98490.69;;;9.85;88.77
3812;BME280;1921;49.368;11.068;2024-02-04T09:14:35;98470.03;;;9.66;89.23
3812;BME280;1921;49.368;11.068;2024-02-04T09:17:05;98430.97;;;9.48;89.19
3812;BME280;1921;49.368;11.068;2024-02-04T09:19:32;98432.97;;;9.72;88.52
3812;BME280;1921;49.368;11.068;2024-02-04T09:21:58;98444.94;;;9.83;87.06
3812;BME280;1921;49.368;11.068;2024-02-04T09:24:23;98442.69;;;9.88;87.22
3812;BME280;1921;49.368;11.068;2024-02-04T09:26:49;98444.78;;;9.84;87.43
3812;BME280;1921;49.368;11.068;2024-02-04T09:29:15;98440.91;;;9.88;87.30
3812;BME280;1921;49.368;11.068;2024-02-04T09:31:41;98399.66;;;9.58;86.88
3812;BME280;1921;49.368;11.068;2024-02-04T09:34:06;98436.22;;;9.74;87.28
3812;BME280;1921;49.368;11.068;2024-02-04T09:36:32;98421.97;;;9.60;87.71
3812;BME280;1921;49.368;11.068;2024-02-04T09:38:58;98455.03;;;9.86;88.34
3812;BME280;1921;49.368;11.068;2024-02-04T09:41:25;98427.22;;;9.68;87.52
3812;BME280;1921;49.368;11.068;2024-02-04T09:43:52;98474.50;;;9.99;88.68
3812;BME280;1921;49.368;11.068;2024-02-04T09:46:19;98445.75;;;9.83;87.06
3812;BME280;1921;49.368;11.068;2024-02-04T09:48:45;98430.13;;;9.83;88.02
3812;BME280;1921;49.368;11.068;2024-02-04T09:51:11;98400.06;;;9.71;87.40
3812;BME280;1921;49.368;11.068;2024-02-04T09:53:43;98406.69;;;9.65;87.51
3812;BME280;1921;49.368;11.068;2024-02-04T09:56:09;98412.50;;;9.77;86.48
3812;BME280;1921;49.368;11.068;2024-02-04T09:58:37;98437.72;;;10.03;86.44
3812;BME280;1921;49.368;11.068;2024-02-04T10:01:05;98406.34;;;9.86;85.56
3812;BME280;1921;49.368;11.068;2024-02-04T10:03:31;98405.59;;;9.94;85.44
3812;BME280;1921;49.368;11.068;2024-02-04T10:05:57;98435.34;;;10.09;84.46
3812;BME280;1921;49.368;11.068;2024-02-04T10:08:23;98372.59;;;9.77;84.47
3812;BME280;1921;49.368;11.068;2024-02-04T10:10:49;98423.97;;;10.18;85.55
3812;BME280;1921;49.368;11.068;2024-02-04T10:13:14;98420.50;;;10.10;85.34
3812;BME280;1921;49.368;11.068;2024-02-04T10:15:40;98467.97;;;10.39;85.27
3812;BME280;1921;49.368;11.068;2024-02-04T10:18:07;98423.38;;;10.24;85.08
3812;BME280;1921;49.368;11.068;2024-02-04T10:20:34;98370.88;;;9.93;84.91
3812;BME280;1921;49.368;11.068;2024-02-04T10:23:00;98441.28;;;10.45;83.95
3812;BME280;1921;49.368;11.068;2024-02-04T10:25:26;98381.53;;;10.26;83.07
3812;BME280;1921;49.368;11.068;2024-02-04T10:27:53;98430.94;;;10.70;83.62
3812;BME280;1921;49.368;11.068;2024-02-04T10:30:20;98403.38;;;10.25;83.85
3812;BME280;1921;49.368;11.068;2024-02-04T10:32:50;98423.75;;;10.64;83.38
3812;BME280;1921;49.368;11.068;2024-02-04T10:35:15;98291.97;;;9.67;83.64
3812;BME280;1921;49.368;11.068;2024-02-04T10:37:45;98449.13;;;10.54;84.19
3812;BME280;1921;49.368;11.068;2024-02-04T10:40:11;98409.06;;;10.63;83.15
3812;BME280;1921;49.368;11.068;2024-02-04T10:42:38;98385.25;;;10.23;84.21
3812;BME280;1921;49.368;11.068;2024-02-04T10:45:09;98395.28;;;9.84;86.47
3812;BME280;1921;49.368;11.068;2024-02-04T10:47:38;98342.72;;;9.63;86.50
3812;BME280;1921;49.368;11.068;2024-02-04T10:50:05;98381.22;;;9.77;85.88
3812;BME280;1921;49.368;11.068;2024-02-04T10:52:40;98365.25;;;9.72;86.04
3812;BME280;1921;49.368;11.068;2024-02-04T10:55:11;98345.38;;;9.71;86.42
3812;BME280;1921;49.368;11.068;2024-02-04T10:57:40;98333.38;;;9.52;85.88
3812;BME280;1921;49.368;11.068;2024-02-04T11:00:07;98355.72;;;10.15;85.79
3812;BME280;1921;49.368;11.068;2024-02-04T11:02:38;98414.13;;;10.64;82.55
3812;BME280;1921;49.368;11.068;2024-02-04T11:05:05;98383.13;;;10.61;82.12
3812;BME280;1921;49.368;11.068;2024-02-04T11:07:35;98346.47;;;10.63;80.17
3812;BME280;1921;49.368;11.068;2024-02-04T11:10:02;98363.25;;;10.60;80.63
3812;BME280;1921;49.368;11.068;2024-02-04T11:12:33;98396.22;;;10.77;81.01
3812;BME280;1921;49.368;11.068;2024-02-04T11:15:05;98412.22;;;10.83;81.20
3812;BME280;1921;49.368;11.068;2024-02-04T11:24:19;98334.44;;;10.78;78.80
3812;BME280;1921;49.368;11.068;2024-02-04T11:26:48;98329.53;;;10.75;79.83
3812;BME280;1921;49.368;11.068;2024-02-04T11:29:14;98320.22;;;10.64;79.80
3812;BME280;1921;49.368;11.068;2024-02-04T11:31:40;98333.66;;;10.35;82.40
3812;BME280;1921;49.368;11.068;2024-02-04T11:34:06;98326.34;;;10.39;81.62
3812;BME280;1921;49.368;11.068;2024-02-04T11:36:38;98361.41;;;10.44;82.10
3812;BME280;1921;49.368;11.068;2024-02-04T11:39:12;98327.63;;;10.35;81.79
3812;BME280;1921;49.368;11.068;2024-02-04T11:41:45;98308.28;;;10.11;82.63
3812;BME280;1921;49.368;11.068;2024-02-04T11:44:25;98351.53;;;10.72;81.68
3812;BME280;1921;49.368;11.068;2024-02-04T11:46:52;98308.47;;;10.60;80.80
3812;BME280;1921;49.368;11.068;2024-02-04T11:49:19;98292.66;;;10.62;81.11
3812;BME280;1921;49.368;11.068;2024-02-04T11:51:51;98312.09;;;10.92;80.46
3812;BME280;1921;49.368;11.068;2024-02-04T11:54:18;98273.75;;;10.68;78.79
3812;BME280;1921;49.368;11.068;2024-02-04T11:56:51;98342.97;;;11.21;80.00
3812;BME280;1921;49.368;11.068;2024-02-04T11:59:24;98283.06;;;11.11;78.06
3812;BME280;1921;49.368;11.068;2024-02-04T12:01:56;98299.22;;;11.39;76.72
3812;BME280;1921;49.368;11.068;2024-02-04T12:04:23;98306.34;;;11.70;76.24
3812;BME280;1921;49.368;11.068;2024-02-04T12:06:50;98315.13;;;11.93;74.14
3812;BME280;1921;49.368;11.068;2024-02-04T12:09:17;98273.91;;;11.56;72.92
3812;BME280;1921;49.368;11.068;2024-02-04T12:11:44;98305.09;;;11.25;76.04
3812;BME280;1921;49.368;11.068;2024-02-04T12:14:10;98310.16;;;11.35;75.91
3812;BME280;1921;49.368;11.068;2024-02-04T12:16:38;98290.06;;;11.35;76.47
3812;BME280;1921;49.368;11.068;2024-02-04T12:19:03;98248.97;;;11.04;75.95
3812;BME280;1921;49.368;11.068;2024-02-04T12:21:30;98302.16;;;11.20;77.35
3812;BME280;1921;49.368;11.068;2024-02-04T12:23:56;98362.03;;;11.29;77.72
3812;BME280;1921;49.368;11.068;2024-02-04T12:26:23;98275.09;;;10.88;77.49
3812;BME280;1921;49.368;11.068;2024-02-04T12:28:50;98296.44;;;10.92;77.28
3812;BME280;1921;49.368;11.068;2024-02-04T12:31:20;98292.34;;;10.65;78.64
3812;BME280;1921;49.368;11.068;2024-02-04T12:33:58;98285.34;;;10.65;79.83
3812;BME280;1921;49.368;11.068;2024-02-04T12:36:28;98221.38;;;10.37;78.09
3812;BME280;1921;49.368;11.068;2024-02-04T12:38:56;98326.47;;;11.04;78.21
3812;BME280;1921;49.368;11.068;2024-02-04T12:41:26;98331.72;;;11.12;78.61
3812;BME280;1921;49.368;11.068;2024-02-04T12:43:57;98308.34;;;10.86;78.18
3812;BME280;1921;49.368;11.068;2024-02-04T12:46:24;98270.97;;;10.61;78.69
3812;BME280;1921;49.368;11.068;2024-02-04T12:48:54;98293.16;;;10.73;78.71
3812;BME280;1921;49.368;11.068;2024-02-04T12:51:31;98307.53;;;10.77;78.97
3812;BME280;1921;49.368;11.068;2024-02-04T12:54:07;98316.84;;;10.88;78.86
3812;BME280;1921;49.368;11.068;2024-02-04T12:56:50;98293.66;;;10.69;79.44
3812;BME280;1921;49.368;11.068;2024-02-04T12:59:30;98308.50;;;10.85;79.00
3812;BME280;1921;49.368;11.068;2024-02-04T13:02:07;98300.38;;;10.96;77.72
3812;BME280;1921;49.368;11.068;2024-02-04T13:04:41;98307.69;;;10.92;78.32
3812;BME280;1921;49.368;11.068;2024-02-04T13:07:10;98302.31;;;11.02;78.10
3812;BME280;1921;49.368;11.068;2024-02-04T13:09:38;98326.94;;;11.24;76.96
3812;BME280;1921;49.368;11.068;2024-02-04T13:12:08;98313.25;;;11.22;76.41
3812;BME280;1921;49.368;11.068;2024-02-04T13:14:35;98272.47;;;10.96;77.46
3812;BME280;1921;49.368;11.068;2024-02-04T13:17:03;98258.13;;;10.84;77.18
3812;BME280;1921;49.368;11.068;2024-02-04T13:19:37;98263.97;;;11.11;76.46
3812;BME280;1921;49.368;11.068;2024-02-04T13:22:04;98261.50;;;11.33;76.18
3812;BME280;1921;49.368;11.068;2024-02-04T13:24:32;98250.56;;;11.46;75.11
3812;BME280;1921;49.368;11.068;2024-02-04T13:26:58;98188.47;;;11.01;74.65